createdAt,value
2018-11-04T00:01:26.608Z,24.17
2018-11-04T00:03:54.840Z,24.18
2018-11-04T00:06:23.052Z,24.30
2018-11-04T00:08:51.292Z,23.97
2018-11-04T00:11:19.523Z,19.30
2018-11-04T00:13:48.096Z,17.23
2018-11-04T00:16:16.224Z,21.80
2018-11-04T00:18:44.476Z,23.70
2018-11-04T00:21:12.616Z,20.07
2018-11-04T00:23:40.852Z,19.83
2018-11-04T00:26:08.988Z,20.00
2018-11-04T00:28:37.127Z,23.93
2018-11-04T00:31:06.088Z,21.42
2018-11-04T00:33:34.304Z,24.30
2018-11-04T00:36:02.452Z,20.40
2018-11-04T00:38:30.679Z,25.40
2018-11-04T00:40:58.974Z,21.27
2018-11-04T00:43:27.168Z,26.60
2018-11-04T00:45:55.392Z,30.13
2018-11-04T00:48:23.626Z,27.07
2018-11-04T00:50:51.825Z,25.77
2018-11-04T00:53:20.018Z,19.97
2018-11-04T00:55:52.558Z,17.43
2018-11-04T00:58:21.073Z,23.10
2018-11-04T01:00:49.267Z,23.50
2018-11-04T01:03:17.551Z,19.00
2018-11-04T01:05:45.723Z,19.17
2018-11-04T01:08:13.872Z,22.20
2018-11-04T01:10:42.136Z,21.57
2018-11-04T01:13:10.269Z,20.10
2018-11-04T01:15:38.514Z,15.47
2018-11-04T01:18:07.489Z,18.60
2018-11-04T01:20:35.632Z,21.00
2018-11-04T01:23:03.799Z,17.13
2018-11-04T01:25:31.951Z,18.07
2018-11-04T01:28:00.148Z,19.87
2018-11-04T01:30:28.428Z,23.60
2018-11-04T01:32:56.573Z,22.30
2018-11-04T01:35:24.797Z,20.85
2018-11-04T01:37:52.928Z,18.00
2018-11-04T01:40:21.159Z,19.63
2018-11-04T01:42:49.394Z,18.10
2018-11-04T01:45:17.631Z,24.53
2018-11-04T01:47:46.059Z,21.23
2018-11-04T01:50:14.983Z,19.90
2018-11-04T01:52:43.152Z,21.87
2018-11-04T01:55:12.072Z,17.30
2018-11-04T01:57:40.277Z,19.00
2018-11-04T02:00:13.281Z,20.97
2018-11-04T02:02:42.174Z,19.55
2018-11-04T02:05:11.269Z,22.47
2018-11-04T02:07:39.788Z,22.63
2018-11-04T02:10:10.667Z,27.37
2018-11-04T02:12:39.217Z,19.20
2018-11-04T02:15:08.616Z,21.30
2018-11-04T02:17:36.804Z,29.20
2018-11-04T02:20:05.475Z,18.95
2018-11-04T02:22:33.724Z,21.13
2018-11-04T02:25:02.139Z,17.47
2018-11-04T02:27:30.303Z,23.12
2018-11-04T02:29:58.599Z,19.10
2018-11-04T02:32:26.781Z,15.27
2018-11-04T02:34:55.438Z,21.30
2018-11-04T02:37:23.850Z,21.90
2018-11-04T02:39:52.212Z,19.07
2018-11-04T02:42:20.475Z,20.37
2018-11-04T02:44:48.629Z,20.60
2018-11-04T02:47:16.891Z,23.20
2018-11-04T02:49:45.079Z,23.47
2018-11-04T02:52:13.243Z,28.40
2018-11-04T02:54:41.378Z,20.20
2018-11-04T02:57:10.616Z,19.92
2018-11-04T02:59:38.768Z,17.47
2018-11-04T03:02:07.330Z,24.03
2018-11-04T03:04:35.430Z,21.77
2018-11-04T03:07:03.679Z,21.00
2018-11-04T03:09:32.245Z,18.63
2018-11-04T03:12:00.565Z,20.90
2018-11-04T03:14:28.714Z,22.37
2018-11-04T03:16:57.027Z,19.95
2018-11-04T03:19:25.303Z,17.43
2018-11-04T03:21:53.524Z,22.37
2018-11-04T03:24:21.774Z,21.57
2018-11-04T03:26:50.098Z,26.77
2018-11-04T03:29:18.380Z,25.90
2018-11-04T03:31:46.600Z,19.70
2018-11-04T03:34:14.728Z,21.80
2018-11-04T03:36:42.904Z,19.00
2018-11-04T03:39:12.060Z,20.48
2018-11-04T03:41:40.888Z,26.40
2018-11-04T03:44:09.779Z,16.73
2018-11-04T03:46:38.058Z,19.60
2018-11-04T03:49:06.744Z,19.90
2018-11-04T03:51:35.019Z,23.60
2018-11-04T03:54:03.195Z,23.10
2018-11-04T03:56:31.360Z,15.10
2018-11-04T03:58:59.730Z,22.20
2018-11-04T04:01:27.970Z,19.43
2018-11-04T04:03:56.421Z,22.50
2018-11-04T04:06:24.896Z,24.60
2018-11-04T04:08:53.044Z,18.83
2018-11-04T04:11:21.701Z,24.47
2018-11-04T04:13:49.869Z,22.30
2018-11-04T04:16:18.201Z,20.63
2018-11-04T04:18:46.364Z,17.80
2018-11-04T04:21:14.512Z,19.27
2018-11-04T04:23:43.375Z,22.07
2018-11-04T04:26:12.206Z,20.37
2018-11-04T04:28:40.695Z,20.68
2018-11-04T04:31:08.867Z,21.87
2018-11-04T04:33:37.200Z,25.73
2018-11-04T04:36:05.874Z,18.77
2018-11-04T04:38:34.113Z,21.43
2018-11-04T04:41:02.316Z,25.60
2018-11-04T04:43:30.552Z,21.77
2018-11-04T04:45:58.712Z,29.23
2018-11-04T04:48:26.977Z,17.67
2018-11-04T04:50:55.232Z,17.35
2018-11-04T04:53:24.338Z,24.67
2018-11-04T04:55:53.504Z,21.10
2018-11-04T04:58:22.110Z,23.23
2018-11-04T05:00:50.388Z,24.87
2018-11-04T05:03:18.606Z,23.70
2018-11-04T05:05:46.736Z,24.82
2018-11-04T05:08:14.996Z,18.97
2018-11-04T05:10:43.140Z,24.50
2018-11-04T05:13:11.355Z,22.77
2018-11-04T05:15:39.872Z,26.53
2018-11-04T05:18:08.300Z,27.60
2018-11-04T05:20:36.684Z,24.73
2018-11-04T05:23:04.892Z,23.93
2018-11-04T05:25:33.159Z,19.63
2018-11-04T05:28:01.409Z,24.40
2018-11-04T05:30:29.539Z,23.20
2018-11-04T05:32:57.784Z,29.85
2018-11-04T05:35:26.042Z,25.20
2018-11-04T05:37:54.308Z,31.63
2018-11-04T05:40:22.626Z,22.77
2018-11-04T05:42:50.892Z,21.50
2018-11-04T05:45:19.068Z,23.33
2018-11-04T05:47:47.300Z,21.05
2018-11-04T05:50:15.492Z,21.90
2018-11-04T05:52:43.651Z,18.30
2018-11-04T05:55:11.917Z,24.60
2018-11-04T05:57:40.168Z,25.60
2018-11-04T06:00:09.403Z,29.03
2018-11-04T06:02:37.581Z,31.10
2018-11-04T06:05:06.775Z,26.47
2018-11-04T06:07:35.046Z,25.13
2018-11-04T06:10:03.591Z,28.83
2018-11-04T06:12:31.942Z,26.27
2018-11-04T06:15:00.178Z,35.47
2018-11-04T06:17:28.357Z,36.77
2018-11-04T06:19:56.562Z,27.93
2018-11-04T06:22:24.742Z,30.17
2018-11-04T06:24:52.904Z,32.37
2018-11-04T06:27:21.171Z,32.60
2018-11-04T06:29:49.529Z,39.00
2018-11-04T06:32:18.363Z,31.55
2018-11-04T06:34:46.681Z,32.37
2018-11-04T06:37:14.764Z,32.97
2018-11-04T06:39:42.932Z,38.60
2018-11-04T06:42:11.239Z,30.23
2018-11-04T06:44:39.562Z,35.07
2018-11-04T06:47:07.752Z,38.08
2018-11-04T06:49:36.032Z,31.50
2018-11-04T06:52:04.354Z,36.33
2018-11-04T06:54:32.577Z,32.57
2018-11-04T06:57:00.749Z,40.47
2018-11-04T06:59:29.205Z,38.67
2018-11-04T07:01:57.655Z,33.88
2018-11-04T07:04:27.727Z,37.93
2018-11-04T07:06:55.984Z,31.13
2018-11-04T07:09:24.199Z,32.60
2018-11-04T07:11:52.375Z,34.70
2018-11-04T07:14:20.916Z,35.83
2018-11-04T07:16:50.106Z,28.55
2018-11-04T07:19:18.292Z,30.83
2018-11-04T07:21:46.481Z,39.53
2018-11-04T07:24:14.764Z,36.80
2018-11-04T07:26:43.037Z,33.73
2018-11-04T07:29:11.575Z,36.60
2018-11-04T07:31:39.944Z,33.00
2018-11-04T07:34:08.471Z,35.40
2018-11-04T07:36:36.842Z,29.67
2018-11-04T07:39:08.036Z,34.83
2018-11-04T07:41:36.196Z,34.80
2018-11-04T07:44:04.698Z,34.47
2018-11-04T07:46:33.060Z,31.73
2018-11-04T07:49:01.249Z,32.73
2018-11-04T07:51:29.552Z,28.50
2018-11-04T07:53:57.631Z,33.50
2018-11-04T07:56:25.792Z,33.40
2018-11-04T07:58:54.000Z,29.33
2018-11-04T08:01:22.179Z,34.73
2018-11-04T08:03:50.388Z,30.60
2018-11-04T08:06:18.599Z,29.00
2018-11-04T08:08:46.741Z,30.43
2018-11-04T08:11:15.157Z,32.57
2018-11-04T08:13:43.546Z,31.37
2018-11-04T08:16:11.647Z,31.13
2018-11-04T08:18:39.843Z,28.20
2018-11-04T08:21:08.203Z,27.60
2018-11-04T08:23:36.397Z,24.97
2018-11-04T08:26:04.657Z,36.03
2018-11-04T08:28:32.939Z,27.53
2018-11-04T08:31:01.513Z,30.90
2018-11-04T08:33:29.692Z,29.90
2018-11-04T08:35:57.916Z,25.15
2018-11-04T08:38:26.237Z,31.43
2018-11-04T08:40:54.430Z,29.80
2018-11-04T08:43:22.602Z,31.77
2018-11-04T08:45:51.037Z,34.50
2018-11-04T08:48:19.185Z,31.07
2018-11-04T08:50:47.400Z,28.20
2018-11-04T08:53:15.531Z,27.13
2018-11-04T08:55:43.698Z,30.03
2018-11-04T08:58:11.923Z,27.53
2018-11-04T09:00:40.213Z,26.43
2018-11-04T09:03:08.621Z,31.80
2018-11-04T09:05:36.919Z,33.70
2018-11-04T09:08:05.574Z,25.73
2018-11-04T09:10:34.356Z,24.07
2018-11-04T09:13:03.265Z,22.30
2018-11-04T09:15:31.772Z,29.07
2018-11-04T09:18:00.036Z,26.90
2018-11-04T09:20:28.336Z,24.10
2018-11-04T09:22:56.468Z,28.87
2018-11-04T09:25:24.596Z,29.37
2018-11-04T09:27:52.789Z,24.00
2018-11-04T09:30:21.136Z,30.55
2018-11-04T09:32:49.416Z,26.20
2018-11-04T09:35:17.696Z,24.67
2018-11-04T09:37:45.993Z,24.47
2018-11-04T09:40:14.566Z,25.63
2018-11-04T09:42:42.862Z,32.17
2018-11-04T09:45:11.617Z,25.83
2018-11-04T09:47:40.239Z,25.20
2018-11-04T09:50:09.846Z,25.10
2018-11-04T09:52:38.425Z,17.67
2018-11-04T09:55:07.291Z,24.03
2018-11-04T09:57:35.872Z,23.40
2018-11-04T10:00:04.220Z,24.10
2018-11-04T10:02:32.995Z,26.57
2018-11-04T10:05:01.264Z,22.57
2018-11-04T10:07:30.091Z,26.42
2018-11-04T10:09:58.447Z,28.47
2018-11-04T10:17:20.882Z,28.00
2018-11-04T10:19:49.508Z,25.33
2018-11-04T10:22:17.384Z,25.87
2018-11-04T10:24:45.633Z,18.50
2018-11-04T10:27:13.836Z,21.37
2018-11-04T10:29:42.099Z,27.03
2018-11-04T10:32:10.462Z,22.03
2018-11-04T10:34:38.690Z,25.77
2018-11-04T10:37:07.431Z,20.30
2018-11-04T10:39:36.171Z,21.03
2018-11-04T10:42:04.761Z,24.47
2018-11-04T10:44:32.947Z,20.17
2018-11-04T10:47:01.115Z,25.43
2018-11-04T10:49:29.833Z,18.43
2018-11-04T10:51:58.832Z,22.87
2018-11-04T10:54:27.333Z,23.37
2018-11-04T10:56:55.511Z,21.33
2018-11-04T10:59:23.922Z,20.60
2018-11-04T11:01:52.108Z,20.10
2018-11-04T11:04:20.313Z,20.00
2018-11-04T11:06:48.522Z,21.00
2018-11-04T11:09:16.724Z,23.13
2018-11-04T11:11:47.851Z,19.95
2018-11-04T11:14:16.120Z,22.95
2018-11-04T11:16:44.395Z,23.40
2018-11-04T11:19:12.560Z,20.37
2018-11-04T11:21:40.808Z,24.07
2018-11-04T11:24:09.050Z,22.00
2018-11-04T11:26:37.568Z,17.63
2018-11-04T11:29:05.787Z,28.03
2018-11-04T11:31:34.008Z,21.90
2018-11-04T11:34:02.157Z,19.17
2018-11-04T11:36:30.456Z,28.37
2018-11-04T11:38:58.668Z,23.05
2018-11-04T11:41:26.867Z,26.83
2018-11-04T11:43:55.226Z,29.87
2018-11-04T11:46:23.485Z,19.57
2018-11-04T11:48:51.752Z,26.47
2018-11-04T11:51:19.944Z,25.52
2018-11-04T11:53:48.304Z,26.12
2018-11-04T11:56:16.850Z,27.87
2018-11-04T11:58:45.343Z,29.90
2018-11-04T12:01:13.537Z,25.83
2018-11-04T12:03:41.690Z,25.60
2018-11-04T12:06:09.848Z,19.97
2018-11-04T12:08:38.051Z,29.63
2018-11-04T12:11:06.308Z,27.33
2018-11-04T12:13:34.483Z,26.77
2018-11-04T12:16:03.194Z,35.25
2018-11-04T12:18:31.666Z,21.63
2018-11-04T12:20:59.905Z,25.40
2018-11-04T12:23:28.231Z,26.40
2018-11-04T12:25:56.446Z,30.70
2018-11-04T12:28:24.583Z,26.73
2018-11-04T12:30:52.811Z,27.30
2018-11-04T12:33:21.148Z,23.77
2018-11-04T12:35:49.447Z,23.40
2018-11-04T12:38:17.871Z,26.10
2018-11-04T12:40:46.225Z,17.33
2018-11-04T12:43:14.649Z,23.62
2018-11-04T12:45:43.665Z,21.80
2018-11-04T12:48:12.402Z,25.07
2018-11-04T12:50:40.556Z,18.62
2018-11-04T12:53:09.069Z,23.85
2018-11-04T12:55:37.246Z,21.47
2018-11-04T12:58:05.627Z,18.87
2018-11-04T13:00:33.850Z,17.87
2018-11-04T13:03:02.476Z,22.50
2018-11-04T13:05:30.639Z,19.17
2018-11-04T13:07:58.948Z,20.03
2018-11-04T13:10:27.092Z,19.63
2018-11-04T13:12:55.205Z,23.07
2018-11-04T13:15:23.396Z,17.83
2018-11-04T13:17:51.871Z,30.50
2018-11-04T13:20:20.201Z,17.47
2018-11-04T13:22:49.423Z,19.60
2018-11-04T13:25:17.575Z,17.37
2018-11-04T13:27:45.947Z,15.33
2018-11-04T13:30:14.571Z,17.73
2018-11-04T13:32:42.756Z,19.42
2018-11-04T13:35:10.980Z,14.18
2018-11-04T13:37:39.131Z,15.33
2018-11-04T13:40:08.639Z,16.70
2018-11-04T13:42:36.879Z,17.30
2018-11-04T13:45:05.608Z,20.77
2018-11-04T13:47:34.108Z,19.75
2018-11-04T13:50:02.460Z,16.20
2018-11-04T13:52:30.817Z,20.00
2018-11-04T13:54:59.173Z,11.53
2018-11-04T13:57:27.707Z,15.68
2018-11-04T13:59:56.393Z,17.97
2018-11-04T14:02:24.683Z,16.20
2018-11-04T14:04:52.811Z,22.00
2018-11-04T14:07:21.361Z,14.77
2018-11-04T14:09:49.784Z,17.93
2018-11-04T14:12:18.043Z,14.98
2018-11-04T14:14:46.263Z,16.50
2018-11-04T14:17:14.672Z,14.80
2018-11-04T14:19:43.212Z,16.95
2018-11-04T14:22:11.792Z,15.57
2018-11-04T14:24:40.202Z,14.60
2018-11-04T14:27:08.693Z,18.80
2018-11-04T14:29:37.337Z,17.00
2018-11-04T14:32:06.051Z,16.83
2018-11-04T14:34:34.456Z,14.77
2018-11-04T14:37:02.953Z,14.00
2018-11-04T14:39:32.151Z,12.50
2018-11-04T14:42:00.424Z,14.97
2018-11-04T14:44:28.590Z,16.03
2018-11-04T14:46:57.111Z,16.30
2018-11-04T14:49:25.370Z,12.27
2018-11-04T14:51:53.561Z,12.20
2018-11-04T14:54:21.809Z,10.93
2018-11-04T14:56:50.018Z,15.60
2018-11-04T14:59:18.265Z,14.55
2018-11-04T15:01:46.711Z,14.97
2018-11-04T15:04:14.689Z,14.40
2018-11-04T15:06:42.863Z,17.07
2018-11-04T15:09:11.081Z,17.00
2018-11-04T15:11:39.250Z,19.63
2018-11-04T15:14:07.318Z,17.43
2018-11-04T15:16:35.503Z,14.43
2018-11-04T15:19:03.722Z,16.40
2018-11-04T15:21:31.927Z,19.02
2018-11-04T15:24:00.231Z,21.73
2018-11-04T15:26:28.614Z,12.63
2018-11-04T15:28:56.660Z,14.03
2018-11-04T15:31:24.896Z,17.13
2018-11-04T15:33:53.066Z,19.03
2018-11-04T15:36:21.166Z,15.83
2018-11-04T15:38:49.553Z,18.40
2018-11-04T15:41:17.695Z,13.75
2018-11-04T15:43:45.995Z,22.67
2018-11-04T15:46:14.198Z,16.23
2018-11-04T15:48:42.931Z,13.57
2018-11-04T15:51:11.380Z,11.80
2018-11-04T15:53:39.524Z,12.03
2018-11-04T15:56:08.437Z,18.17
2018-11-04T15:58:36.583Z,13.93
2018-11-04T16:01:04.878Z,11.37
2018-11-04T16:03:33.023Z,13.27
2018-11-04T16:06:01.339Z,15.23
2018-11-04T16:08:29.452Z,17.20
2018-11-04T16:10:57.995Z,15.50
2018-11-04T16:13:26.203Z,13.93
2018-11-04T16:15:54.447Z,16.70
2018-11-04T16:18:22.870Z,14.33
2018-11-04T16:20:50.939Z,16.23
2018-11-04T16:23:19.211Z,13.00
2018-11-04T16:25:47.536Z,15.78
2018-11-04T16:28:15.891Z,14.27
2018-11-04T16:30:44.027Z,15.57
2018-11-04T16:33:12.388Z,15.20
2018-11-04T16:35:41.019Z,14.07
2018-11-04T16:38:10.124Z,12.00
2018-11-04T16:40:38.259Z,12.83
2018-11-04T16:43:06.537Z,16.37
2018-11-04T16:45:34.794Z,10.00
2018-11-04T16:48:03.027Z,12.70
2018-11-04T16:50:31.174Z,13.50
2018-11-04T16:52:59.379Z,16.43
2018-11-04T16:55:27.703Z,13.87
2018-11-04T16:57:56.044Z,16.73
2018-11-04T17:00:24.804Z,16.50
2018-11-04T17:02:52.946Z,19.50
2018-11-04T17:05:21.237Z,16.90
2018-11-04T17:07:49.295Z,15.20
2018-11-04T17:10:17.714Z,13.10
2018-11-04T17:12:46.022Z,17.10
2018-11-04T17:15:15.067Z,14.73
2018-11-04T17:17:43.445Z,13.47
2018-11-04T17:20:15.460Z,11.57
2018-11-04T17:22:44.311Z,14.63
2018-11-04T17:25:12.682Z,16.10
2018-11-04T17:27:41.444Z,16.87
2018-11-04T17:30:13.031Z,20.63
2018-11-04T17:32:41.464Z,17.25
2018-11-04T17:35:11.303Z,13.27
2018-11-04T17:37:39.681Z,12.45
2018-11-04T17:40:08.812Z,12.40
2018-11-04T17:42:37.467Z,12.93
2018-11-04T17:45:06.756Z,11.48
2018-11-04T17:47:34.930Z,15.87
2018-11-04T17:50:03.148Z,7.63
2018-11-04T17:52:31.396Z,14.30
2018-11-04T17:54:59.527Z,15.90
2018-11-04T17:57:27.987Z,13.40
2018-11-04T17:59:56.128Z,14.60
2018-11-04T18:02:24.490Z,21.27
2018-11-04T18:04:52.647Z,13.23
2018-11-04T18:07:20.812Z,12.80
2018-11-04T18:09:49.023Z,23.20
2018-11-04T18:12:17.159Z,15.80
2018-11-04T18:14:45.340Z,16.20
2018-11-04T18:17:13.411Z,13.73
2018-11-04T18:19:41.592Z,14.20
2018-11-04T18:22:09.719Z,14.60
2018-11-04T18:24:37.915Z,12.77
2018-11-04T18:27:06.116Z,13.37
2018-11-04T18:29:34.335Z,12.50
2018-11-04T18:32:02.565Z,14.37
2018-11-04T18:34:30.820Z,13.00
2018-11-04T18:36:59.059Z,14.03
2018-11-04T18:39:27.347Z,21.00
2018-11-04T18:41:55.651Z,17.63
2018-11-04T18:44:23.801Z,15.03
2018-11-04T18:46:52.014Z,16.35
2018-11-04T18:49:20.219Z,17.00
2018-11-04T18:51:48.390Z,14.80
2018-11-04T18:54:16.680Z,16.50
2018-11-04T18:56:45.123Z,15.47
2018-11-04T18:59:13.389Z,15.60
2018-11-04T19:01:41.559Z,13.17
2018-11-04T19:04:09.743Z,14.53
2018-11-04T19:06:37.913Z,22.07
2018-11-04T19:09:07.379Z,14.17
2018-11-04T19:11:35.753Z,15.07
2018-11-04T19:14:04.027Z,13.70
2018-11-04T19:16:32.254Z,15.33
2018-11-04T19:19:00.561Z,11.50
2018-11-04T19:21:28.670Z,11.83
2018-11-04T19:23:57.084Z,15.47
2018-11-04T19:26:25.432Z,11.43
2018-11-04T19:28:53.627Z,17.70
2018-11-04T19:31:22.160Z,16.40
2018-11-04T19:33:50.417Z,12.07
2018-11-04T19:36:18.836Z,14.67
2018-11-04T19:38:47.123Z,15.10
2018-11-04T19:41:15.995Z,12.30
2018-11-04T19:43:44.216Z,12.60
2018-11-04T19:46:12.747Z,14.20
2018-11-04T19:48:41.094Z,14.17
2018-11-04T19:51:09.309Z,14.68
2018-11-04T19:53:37.703Z,12.45
2018-11-04T19:56:06.542Z,15.83
2018-11-04T19:58:34.932Z,12.10
2018-11-04T20:01:03.139Z,16.73
2018-11-04T20:03:31.280Z,13.50
2018-11-04T20:05:59.566Z,13.37
2018-11-04T20:08:27.627Z,10.03
2018-11-04T20:10:55.906Z,12.07
2018-11-04T20:13:29.475Z,13.65
2018-11-04T20:15:57.877Z,14.50
2018-11-04T20:19:30.490Z,11.47
2018-11-04T20:21:58.604Z,15.37
2018-11-04T20:24:32.708Z,13.07
2018-11-04T20:27:00.875Z,10.67
2018-11-04T20:29:29.157Z,14.73
2018-11-04T20:32:02.799Z,16.13
2018-11-04T20:34:30.951Z,21.27
2018-11-04T20:36:59.163Z,16.07
2018-11-04T20:39:32.782Z,24.40
2018-11-04T20:42:00.908Z,17.60
2018-11-04T20:44:29.144Z,10.83
2018-11-04T20:46:57.536Z,12.15
2018-11-04T20:49:31.198Z,11.60
2018-11-04T20:51:59.512Z,14.00
2018-11-04T20:54:27.769Z,15.23
2018-11-04T20:57:01.289Z,15.77
2018-11-04T20:59:29.550Z,13.07
2018-11-04T21:01:57.964Z,13.97
2018-11-04T21:04:25.999Z,15.40
2018-11-04T21:06:54.185Z,18.90
2018-11-04T21:09:22.315Z,10.68
2018-11-04T21:11:50.548Z,11.73
2018-11-04T21:14:19.581Z,12.03
2018-11-04T21:16:48.011Z,18.30
2018-11-04T21:19:15.866Z,16.07
2018-11-04T21:21:44.110Z,14.43
2018-11-04T21:24:12.403Z,16.27
2018-11-04T21:26:40.912Z,13.27
2018-11-04T21:29:09.385Z,18.07
2018-11-04T21:31:37.356Z,12.83
2018-11-04T21:34:05.915Z,15.47
2018-11-04T21:36:34.258Z,11.27
2018-11-04T21:39:02.443Z,11.08
2018-11-04T21:41:30.716Z,17.82
2018-11-04T21:43:59.095Z,16.80
2018-11-04T21:46:27.217Z,17.70
2018-11-04T21:48:55.445Z,18.77
2018-11-04T21:51:23.648Z,17.37
2018-11-04T21:53:52.027Z,10.50
2018-11-04T21:56:20.522Z,13.05
2018-11-04T21:58:49.297Z,16.53
2018-11-04T22:02:39.406Z,16.52
2018-11-04T22:05:07.977Z,15.70
2018-11-04T22:07:36.511Z,15.23
2018-11-04T22:10:06.341Z,12.83
2018-11-04T22:12:34.604Z,15.23
2018-11-04T22:15:02.792Z,12.63
2018-11-04T22:17:31.042Z,10.03
2018-11-04T22:19:59.203Z,14.20
2018-11-04T22:22:27.485Z,11.57
2018-11-04T22:24:55.629Z,14.27
2018-11-04T22:27:23.831Z,14.27
2018-11-04T22:29:52.672Z,17.37
2018-11-04T22:32:20.867Z,13.23
2018-11-04T22:34:49.159Z,15.80
2018-11-04T22:37:17.366Z,16.77
2018-11-04T22:39:45.541Z,14.23
2018-11-04T22:42:13.862Z,18.50
2018-11-04T22:44:41.939Z,11.10
2018-11-04T22:47:10.127Z,11.60
2018-11-04T22:49:38.476Z,12.60
2018-11-04T22:52:06.647Z,20.30
2018-11-04T22:54:35.062Z,15.15
2018-11-04T22:57:03.311Z,21.00
2018-11-04T22:59:31.567Z,10.10
2018-11-04T23:01:59.856Z,15.30
2018-11-04T23:04:33.308Z,19.50
2018-11-04T23:07:01.537Z,16.27
2018-11-04T23:09:29.876Z,16.40
2018-11-04T23:11:58.017Z,13.77
2018-11-04T23:14:26.163Z,18.03
2018-11-04T23:16:55.183Z,16.10
2018-11-04T23:19:23.475Z,18.00
2018-11-04T23:21:51.625Z,15.63
2018-11-04T23:24:19.836Z,17.93
2018-11-04T23:26:47.995Z,13.50
2018-11-04T23:29:16.173Z,15.90
2018-11-04T23:31:44.303Z,16.27
2018-11-04T23:34:12.447Z,15.90
2018-11-04T23:36:40.634Z,14.55
2018-11-04T23:39:09.829Z,14.75
2018-11-04T23:41:38.071Z,16.25
2018-11-04T23:44:06.284Z,18.53
2018-11-04T23:46:34.523Z,20.87
2018-11-04T23:49:02.917Z,14.73
2018-11-04T23:51:31.404Z,16.97
2018-11-04T23:53:59.597Z,20.02
2018-11-04T23:56:27.998Z,15.53
2018-11-04T23:58:56.904Z,13.50
